sensor_id;sensor_type;location;lat;lon;timestamp;temperature;humidity
5304;DHT22;2674;49.722;10.892;2023-06-10T00:01:57;15.10;1.00
5304;DHT22;2674;49.722;10.892;2023-06-10T00:04:23;15.10;1.00
5304;DHT22;2674;49.722;10.892;2023-06-10T00:06:49;15.10;1.00
5304;DHT22;2674;49.722;10.892;2023-06-10T00:09:16;15.10;1.00
5304;DHT22;2674;49.722;10.892;2023-06-10T00:11:42;15.10;1.00
5304;DHT22;2674;49.722;10.892;2023-06-10T00:14:08;15.00;1.00
5304;DHT22;2674;49.722;10.892;2023-06-10T00:16:34;15.00;1.00
5304;DHT22;2674;49.722;10.892;2023-06-10T00:19:00;14.90;1.00
5304;DHT22;2674;49.722;10.892;2023-06-10T00:21:31;14.90;1.00
5304;DHT22;2674;49.722;10.892;2023-06-10T00:24:09;14.90;1.00
5304;DHT22;2674;49.722;10.892;2023-06-10T00:26:39;14.80;1.00
5304;DHT22;2674;49.722;10.892;2023-06-10T00:29:05;14.80;1.00
5304;DHT22;2674;49.722;10.892;2023-06-10T00:31:31;14.70;1.00
5304;DHT22;2674;49.722;10.892;2023-06-10T00:33:57;14.70;1.00
5304;DHT22;2674;49.722;10.892;2023-06-10T00:36:24;14.60;1.00
5304;DHT22;2674;49.722;10.892;2023-06-10T00:38:50;14.50;1.00
5304;DHT22;2674;49.722;10.892;2023-06-10T00:41:16;14.50;1.00
5304;DHT22;2674;49.722;10.892;2023-06-10T00:43:41;14.50;1.00
5304;DHT22;2674;49.722;10.892;2023-06-10T00:46:07;14.40;1.00
5304;DHT22;2674;49.722;10.892;2023-06-10T00:48:33;14.40;1.00
5304;DHT22;2674;49.722;10.892;2023-06-10T00:50:59;14.30;3.40
5304;DHT22;2674;49.722;10.892;2023-06-10T00:53:26;14.30;8.50
5304;DHT22;2674;49.722;10.892;2023-06-10T00:55:53;14.30;10.90
5304;DHT22;2674;49.722;10.892;2023-06-10T00:58:19;14.20;8.10
5304;DHT22;2674;49.722;10.892;2023-06-10T01:00:45;14.20;7.30
5304;DHT22;2674;49.722;10.892;2023-06-10T01:03:12;14.20;11.80
5304;DHT22;2674;49.722;10.892;2023-06-10T01:05:39;14.10;11.30
5304;DHT22;2674;49.722;10.892;2023-06-10T01:08:22;14.10;19.10
5304;DHT22;2674;49.722;10.892;2023-06-10T01:10:52;14.00;11.80
5304;DHT22;2674;49.722;10.892;2023-06-10T01:13:20;14.00;11.20
5304;DHT22;2674;49.722;10.892;2023-06-10T01:15:50;13.90;6.60
5304;DHT22;2674;49.722;10.892;2023-06-10T01:18:16;14.00;1.00
5304;DHT22;2674;49.722;10.892;2023-06-10T01:20:43;13.90;1.00
5304;DHT22;2674;49.722;10.892;2023-06-10T01:23:10;14.00;7.60
5304;DHT22;2674;49.722;10.892;2023-06-10T01:25:41;13.90;7.70
5304;DHT22;2674;49.722;10.892;2023-06-10T01:31:05;13.80;15.00
5304;DHT22;2674;49.722;10.892;2023-06-10T01:33:29;13.70;23.70
5304;DHT22;2674;49.722;10.892;2023-06-10T01:35:58;13.70;23.10
5304;DHT22;2674;49.722;10.892;2023-06-10T01:38:32;13.70;23.30
5304;DHT22;2674;49.722;10.892;2023-06-10T01:41:00;13.60;27.20
5304;DHT22;2674;49.722;10.892;2023-06-10T01:43:26;13.60;25.70
5304;DHT22;2674;49.722;10.892;2023-06-10T01:45:52;13.60;21.70
5304;DHT22;2674;49.722;10.892;2023-06-10T01:48:18;13.70;20.00
5304;DHT22;2674;49.722;10.892;2023-06-10T01:50:43;13.60;26.80
5304;DHT22;2674;49.722;10.892;2023-06-10T01:53:09;13.60;19.50
5304;DHT22;2674;49.722;10.892;2023-06-10T01:55:35;13.60;12.00
5304;DHT22;2674;49.722;10.892;2023-06-10T01:58:01;13.50;12.20
5304;DHT22;2674;49.722;10.892;2023-06-10T02:00:27;13.50;18.20
5304;DHT22;2674;49.722;10.892;2023-06-10T02:02:53;13.50;22.80
5304;DHT22;2674;49.722;10.892;2023-06-10T02:05:19;13.40;26.50
5304;DHT22;2674;49.722;10.892;2023-06-10T02:07:44;13.40;29.60
5304;DHT22;2674;49.722;10.892;2023-06-10T02:10:10;13.40;29.00
5304;DHT22;2674;49.722;10.892;2023-06-10T02:12:36;13.30;21.20
5304;DHT22;2674;49.722;10.892;2023-06-10T02:15:02;13.30;21.70
5304;DHT22;2674;49.722;10.892;2023-06-10T02:17:29;13.30;13.60
5304;DHT22;2674;49.722;10.892;2023-06-10T02:19:55;13.30;17.30
5304;DHT22;2674;49.722;10.892;2023-06-10T02:22:23;13.30;26.30
5304;DHT22;2674;49.722;10.892;2023-06-10T02:24:49;13.20;36.50
5304;DHT22;2674;49.722;10.892;2023-06-10T02:27:16;13.20;46.80
5304;DHT22;2674;49.722;10.892;2023-06-10T02:29:42;13.10;44.70
5304;DHT22;2674;49.722;10.892;2023-06-10T02:32:09;13.10;52.90
5304;DHT22;2674;49.722;10.892;2023-06-10T02:34:35;13.00;57.40
5304;DHT22;2674;49.722;10.892;2023-06-10T02:37:02;13.00;55.60
5304;DHT22;2674;49.722;10.892;2023-06-10T02:39:28;13.00;65.60
5304;DHT22;2674;49.722;10.892;2023-06-10T02:41:54;13.00;69.20
5304;DHT22;2674;49.722;10.892;2023-06-10T02:44:20;13.00;67.80
5304;DHT22;2674;49.722;10.892;2023-06-10T02:46:46;12.90;68.30
5304;DHT22;2674;49.722;10.892;2023-06-10T02:49:12;12.90;67.90
5304;DHT22;2674;49.722;10.892;2023-06-10T02:51:38;12.90;68.30
5304;DHT22;2674;49.722;10.892;2023-06-10T02:54:04;12.90;71.50
5304;DHT22;2674;49.722;10.892;2023-06-10T02:56:30;12.80;74.60
5304;DHT22;2674;49.722;10.892;2023-06-10T02:58:57;12.80;70.20
5304;DHT22;2674;49.722;10.892;2023-06-10T03:01:23;12.80;78.90
5304;DHT22;2674;49.722;10.892;2023-06-10T03:03:49;12.80;84.00
5304;DHT22;2674;49.722;10.892;2023-06-10T03:06:16;12.80;75.40
5304;DHT22;2674;49.722;10.892;2023-06-10T03:08:45;12.80;83.40
5304;DHT22;2674;49.722;10.892;2023-06-10T03:11:14;12.80;65.60
5304;DHT22;2674;49.722;10.892;2023-06-10T03:13:40;12.80;70.00
5304;DHT22;2674;49.722;10.892;2023-06-10T03:16:06;12.80;63.70
5304;DHT22;2674;49.722;10.892;2023-06-10T03:18:33;12.80;49.60
5304;DHT22;2674;49.722;10.892;2023-06-10T03:20:59;12.80;53.60
5304;DHT22;2674;49.722;10.892;2023-06-10T03:23:25;12.70;58.10
5304;DHT22;2674;49.722;10.892;2023-06-10T03:25:52;12.80;46.10
5304;DHT22;2674;49.722;10.892;2023-06-10T03:28:20;12.70;40.30
5304;DHT22;2674;49.722;10.892;2023-06-10T03:30:47;12.80;41.00
5304;DHT22;2674;49.722;10.892;2023-06-10T03:33:13;12.90;42.50
5304;DHT22;2674;49.722;10.892;2023-06-10T03:35:39;12.90;41.70
5304;DHT22;2674;49.722;10.892;2023-06-10T03:38:05;12.90;53.60
5304;DHT22;2674;49.722;10.892;2023-06-10T03:40:31;12.90;63.40
5304;DHT22;2674;49.722;10.892;2023-06-10T03:42:57;12.90;65.20
5304;DHT22;2674;49.722;10.892;2023-06-10T03:45:23;12.90;61.00
5304;DHT22;2674;49.722;10.892;2023-06-10T03:47:50;12.90;64.60
5304;DHT22;2674;49.722;10.892;2023-06-10T03:50:16;12.90;73.80
5304;DHT22;2674;49.722;10.892;2023-06-10T03:52:41;12.90;81.70
5304;DHT22;2674;49.722;10.892;2023-06-10T03:55:07;13.00;82.50
5304;DHT22;2674;49.722;10.892;2023-06-10T03:57:33;13.00;90.70
5304;DHT22;2674;49.722;10.892;2023-06-10T03:59:59;13.00;73.00
5304;DHT22;2674;49.722;10.892;2023-06-10T04:02:25;13.00;72.20
5304;DHT22;2674;49.722;10.892;2023-06-10T04:04:50;13.10;75.30
5304;DHT22;2674;49.722;10.892;2023-06-10T04:07:17;13.10;79.60
5304;DHT22;2674;49.722;10.892;2023-06-10T04:09:45;13.10;83.80
5304;DHT22;2674;49.722;10.892;2023-06-10T04:12:12;13.20;81.70
5304;DHT22;2674;49.722;10.892;2023-06-10T04:14:37;13.20;84.30
5304;DHT22;2674;49.722;10.892;2023-06-10T04:17:05;13.20;79.10
5304;DHT22;2674;49.722;10.892;2023-06-10T04:19:33;13.20;80.00
5304;DHT22;2674;49.722;10.892;2023-06-10T04:22:01;13.30;89.70
5304;DHT22;2674;49.722;10.892;2023-06-10T04:24:28;13.60;95.30
5304;DHT22;2674;49.722;10.892;2023-06-10T04:26:53;13.90;94.40
5304;DHT22;2674;49.722;10.892;2023-06-10T04:29:19;14.40;81.10
5304;DHT22;2674;49.722;10.892;2023-06-10T04:31:46;14.90;55.50
5304;DHT22;2674;49.722;10.892;2023-06-10T04:34:12;15.40;14.30
5304;DHT22;2674;49.722;10.892;2023-06-10T04:36:38;15.80;1.00
5304;DHT22;2674;49.722;10.892;2023-06-10T04:39:04;16.20;1.00
5304;DHT22;2674;49.722;10.892;2023-06-10T04:41:33;16.50;1.00
5304;DHT22;2674;49.722;10.892;2023-06-10T04:43:59;16.80;1.00
5304;DHT22;2674;49.722;10.892;2023-06-10T04:46:24;17.20;1.00
5304;DHT22;2674;49.722;10.892;2023-06-10T04:48:50;17.40;1.00
5304;DHT22;2674;49.722;10.892;2023-06-10T04:51:16;17.70;1.00
5304;DHT22;2674;49.722;10.892;2023-06-10T04:53:42;17.90;1.00
5304;DHT22;2674;49.722;10.892;2023-06-10T04:56:08;18.10;1.00
5304;DHT22;2674;49.722;10.892;2023-06-10T04:58:34;18.30;1.00
5304;DHT22;2674;49.722;10.892;2023-06-10T05:01:00;18.50;1.00
5304;DHT22;2674;49.722;10.892;2023-06-10T05:03:27;18.80;1.00
5304;DHT22;2674;49.722;10.892;2023-06-10T05:05:53;18.90;1.00
5304;DHT22;2674;49.722;10.892;2023-06-10T05:08:18;19.10;1.00
5304;DHT22;2674;49.722;10.892;2023-06-10T05:10:44;19.20;1.00
5304;DHT22;2674;49.722;10.892;2023-06-10T05:13:10;18.90;1.00
5304;DHT22;2674;49.722;10.892;2023-06-10T05:15:36;18.90;1.00
5304;DHT22;2674;49.722;10.892;2023-06-10T05:18:02;18.90;1.00
5304;DHT22;2674;49.722;10.892;2023-06-10T05:20:28;18.80;1.00
5304;DHT22;2674;49.722;10.892;2023-06-10T05:22:55;18.80;1.00
5304;DHT22;2674;49.722;10.892;2023-06-10T05:25:21;19.00;1.00
5304;DHT22;2674;49.722;10.892;2023-06-10T05:27:47;19.10;1.00
5304;DHT22;2674;49.722;10.892;2023-06-10T05:30:13;19.40;1.00
5304;DHT22;2674;49.722;10.892;2023-06-10T05:32:38;19.60;1.00
5304;DHT22;2674;49.722;10.892;2023-06-10T05:35:04;19.70;1.00
5304;DHT22;2674;49.722;10.892;2023-06-10T05:37:33;19.80;1.00
5304;DHT22;2674;49.722;10.892;2023-06-10T05:39:59;19.90;1.00
5304;DHT22;2674;49.722;10.892;2023-06-10T05:42:24;19.90;1.00
5304;DHT22;2674;49.722;10.892;2023-06-10T05:44:50;20.00;1.00
5304;DHT22;2674;49.722;10.892;2023-06-10T05:47:16;20.10;1.00
5304;DHT22;2674;49.722;10.892;2023-06-10T05:49:42;20.20;1.00
5304;DHT22;2674;49.722;10.892;2023-06-10T05:52:08;20.30;1.00
5304;DHT22;2674;49.722;10.892;2023-06-10T05:54:34;20.40;1.00
5304;DHT22;2674;49.722;10.892;2023-06-10T05:57:00;20.50;1.00
5304;DHT22;2674;49.722;10.892;2023-06-10T05:59:25;20.70;1.00
5304;DHT22;2674;49.722;10.892;2023-06-10T06:01:51;20.80;1.00
5304;DHT22;2674;49.722;10.892;2023-06-10T06:04:17;20.90;1.00
5304;DHT22;2674;49.722;10.892;2023-06-10T06:06:43;20.90;1.00
5304;DHT22;2674;49.722;10.892;2023-06-10T06:09:08;20.90;1.00
5304;DHT22;2674;49.722;10.892;2023-06-10T06:11:34;20.90;1.00
5304;DHT22;2674;49.722;10.892;2023-06-10T06:14:01;20.90;1.00
5304;DHT22;2674;49.722;10.892;2023-06-10T06:16:27;21.00;1.00
5304;DHT22;2674;49.722;10.892;2023-06-10T06:18:52;21.00;1.00
5304;DHT22;2674;49.722;10.892;2023-06-10T06:21:18;21.20;1.00
5304;DHT22;2674;49.722;10.892;2023-06-10T06:23:47;21.30;1.00
5304;DHT22;2674;49.722;10.892;2023-06-10T06:26:13;21.30;1.00
5304;DHT22;2674;49.722;10.892;2023-06-10T06:28:39;21.40;1.00
5304;DHT22;2674;49.722;10.892;2023-06-10T06:31:05;21.60;1.00
5304;DHT22;2674;49.722;10.892;2023-06-10T06:33:32;21.50;1.00
5304;DHT22;2674;49.722;10.892;2023-06-10T06:35:58;21.60;1.00
5304;DHT22;2674;49.722;10.892;2023-06-10T06:38:26;21.70;1.00
5304;DHT22;2674;49.722;10.892;2023-06-10T06:40:52;21.60;1.00
5304;DHT22;2674;49.722;10.892;2023-06-10T06:43:18;21.50;1.00
5304;DHT22;2674;49.722;10.892;2023-06-10T06:45:44;21.50;1.00
5304;DHT22;2674;49.722;10.892;2023-06-10T06:48:11;21.60;1.00
5304;DHT22;2674;49.722;10.892;2023-06-10T06:50:37;21.60;1.00
5304;DHT22;2674;49.722;10.892;2023-06-10T06:53:04;21.80;1.00
5304;DHT22;2674;49.722;10.892;2023-06-10T06:55:30;21.70;1.00
5304;DHT22;2674;49.722;10.892;2023-06-10T06:57:55;21.80;1.00
5304;DHT22;2674;49.722;10.892;2023-06-10T07:00:22;21.80;1.00
5304;DHT22;2674;49.722;10.892;2023-06-10T07:02:48;21.70;1.00
5304;DHT22;2674;49.722;10.892;2023-06-10T07:05:14;21.80;1.00
5304;DHT22;2674;49.722;10.892;2023-06-10T07:07:40;21.80;1.00
5304;DHT22;2674;49.722;10.892;2023-06-10T07:10:06;21.70;1.00
5304;DHT22;2674;49.722;10.892;2023-06-10T07:12:32;21.80;1.00
5304;DHT22;2674;49.722;10.892;2023-06-10T07:14:58;21.90;1.00
5304;DHT22;2674;49.722;10.892;2023-06-10T07:17:23;22.00;1.00
5304;DHT22;2674;49.722;10.892;2023-06-10T07:19:49;22.10;1.00
5304;DHT22;2674;49.722;10.892;2023-06-10T07:22:16;22.10;1.00
5304;DHT22;2674;49.722;10.892;2023-06-10T07:24:42;22.30;1.00
5304;DHT22;2674;49.722;10.892;2023-06-10T07:27:09;22.50;1.00
5304;DHT22;2674;49.722;10.892;2023-06-10T07:29:35;22.50;1.00
5304;DHT22;2674;49.722;10.892;2023-06-10T07:32:03;22.60;1.00
5304;DHT22;2674;49.722;10.892;2023-06-10T07:34:29;22.50;1.00
5304;DHT22;2674;49.722;10.892;2023-06-10T07:36:55;22.40;1.00
5304;DHT22;2674;49.722;10.892;2023-06-10T07:39:20;22.40;1.00
5304;DHT22;2674;49.722;10.892;2023-06-10T07:41:46;22.50;1.00
5304;DHT22;2674;49.722;10.892;2023-06-10T07:44:13;22.70;1.00
5304;DHT22;2674;49.722;10.892;2023-06-10T07:46:39;22.80;1.00
5304;DHT22;2674;49.722;10.892;2023-06-10T07:49:05;22.90;1.00
5304;DHT22;2674;49.722;10.892;2023-06-10T07:51:31;23.10;1.00
5304;DHT22;2674;49.722;10.892;2023-06-10T07:53:56;23.20;1.00
5304;DHT22;2674;49.722;10.892;2023-06-10T07:56:22;23.30;1.00
5304;DHT22;2674;49.722;10.892;2023-06-10T07:58:48;23.40;1.00
5304;DHT22;2674;49.722;10.892;2023-06-10T08:01:14;23.40;1.00
5304;DHT22;2674;49.722;10.892;2023-06-10T08:03:40;23.40;1.00
5304;DHT22;2674;49.722;10.892;2023-06-10T08:06:05;23.50;1.00
5304;DHT22;2674;49.722;10.892;2023-06-10T08:08:31;23.70;1.00
5304;DHT22;2674;49.722;10.892;2023-06-10T08:10:57;23.80;1.00
5304;DHT22;2674;49.722;10.892;2023-06-10T08:13:23;24.00;1.00
5304;DHT22;2674;49.722;10.892;2023-06-10T08:15:48;24.20;1.00
5304;DHT22;2674;49.722;10.892;2023-06-10T08:18:16;24.30;1.00
5304;DHT22;2674;49.722;10.892;2023-06-10T08:20:42;24.40;1.00
5304;DHT22;2674;49.722;10.892;2023-06-10T08:23:07;24.60;1.00
5304;DHT22;2674;49.722;10.892;2023-06-10T08:25:33;24.70;1.00
5304;DHT22;2674;49.722;10.892;2023-06-10T08:27:59;24.60;1.00
5304;DHT22;2674;49.722;10.892;2023-06-10T08:30:25;24.70;1.00
5304;DHT22;2674;49.722;10.892;2023-06-10T08:32:51;24.60;1.00
5304;DHT22;2674;49.722;10.892;2023-06-10T08:35:17;24.80;1.00
5304;DHT22;2674;49.722;10.892;2023-06-10T08:37:43;24.90;1.00
5304;DHT22;2674;49.722;10.892;2023-06-10T08:40:09;24.80;1.00
5304;DHT22;2674;49.722;10.892;2023-06-10T08:43:04;24.70;1.00
5304;DHT22;2674;49.722;10.892;2023-06-10T08:45:31;24.90;1.00
5304;DHT22;2674;49.722;10.892;2023-06-10T08:47:57;25.10;1.00
5304;DHT22;2674;49.722;10.892;2023-06-10T08:50:25;25.20;1.00
5304;DHT22;2674;49.722;10.892;2023-06-10T08:52:54;25.30;1.00
5304;DHT22;2674;49.722;10.892;2023-06-10T08:55:33;25.40;1.00
5304;DHT22;2674;49.722;10.892;2023-06-10T08:58:01;25.60;1.00
5304;DHT22;2674;49.722;10.892;2023-06-10T09:00:28;25.70;1.00
5304;DHT22;2674;49.722;10.892;2023-06-10T09:02:56;25.40;1.00
5304;DHT22;2674;49.722;10.892;2023-06-10T09:05:22;25.40;1.00
5304;DHT22;2674;49.722;10.892;2023-06-10T09:07:48;25.40;1.00
5304;DHT22;2674;49.722;10.892;2023-06-10T09:10:14;25.50;1.00
5304;DHT22;2674;49.722;10.892;2023-06-10T09:12:40;25.60;1.00
5304;DHT22;2674;49.722;10.892;2023-06-10T09:15:07;25.50;1.00
5304;DHT22;2674;49.722;10.892;2023-06-10T09:17:34;25.40;1.00
5304;DHT22;2674;49.722;10.892;2023-06-10T09:20:01;25.60;1.00
5304;DHT22;2674;49.722;10.892;2023-06-10T09:22:28;25.80;1.00
5304;DHT22;2674;49.722;10.892;2023-06-10T09:25:11;25.90;1.00
5304;DHT22;2674;49.722;10.892;2023-06-10T09:27:51;26.10;1.00
5304;DHT22;2674;49.722;10.892;2023-06-10T09:30:30;26.00;1.00
5304;DHT22;2674;49.722;10.892;2023-06-10T09:32:57;26.10;1.00
5304;DHT22;2674;49.722;10.892;2023-06-10T09:35:24;26.00;1.00
5304;DHT22;2674;49.722;10.892;2023-06-10T09:37:54;25.60;1.00
5304;DHT22;2674;49.722;10.892;2023-06-10T09:40:20;25.50;1.00
5304;DHT22;2674;49.722;10.892;2023-06-10T09:42:55;25.70;1.00
5304;DHT22;2674;49.722;10.892;2023-06-10T09:45:22;26.00;1.00
5304;DHT22;2674;49.722;10.892;2023-06-10T09:47:52;26.40;1.00
5304;DHT22;2674;49.722;10.892;2023-06-10T09:50:18;26.50;1.00
5304;DHT22;2674;49.722;10.892;2023-06-10T09:52:46;26.80;1.00
5304;DHT22;2674;49.722;10.892;2023-06-10T09:55:15;26.80;1.00
5304;DHT22;2674;49.722;10.892;2023-06-10T09:57:41;26.90;1.00
5304;DHT22;2674;49.722;10.892;2023-06-10T10:00:11;26.70;1.00
5304;DHT22;2674;49.722;10.892;2023-06-10T10:02:51;26.50;1.00
5304;DHT22;2674;49.722;10.892;2023-06-10T10:05:18;26.70;1.00
5304;DHT22;2674;49.722;10.892;2023-06-10T10:07:45;26.80;1.00
5304;DHT22;2674;49.722;10.892;2023-06-10T10:10:12;26.70;1.00
5304;DHT22;2674;49.722;10.892;2023-06-10T10:12:42;26.60;1.00
5304;DHT22;2674;49.722;10.892;2023-06-10T10:15:10;26.70;1.00
5304;DHT22;2674;49.722;10.892;2023-06-10T10:18:11;26.80;1.00
5304;DHT22;2674;49.722;10.892;2023-06-10T10:20:50;26.30;1.00
5304;DHT22;2674;49.722;10.892;2023-06-10T10:23:36;26.20;1.00
5304;DHT22;2674;49.722;10.892;2023-06-10T10:26:07;25.90;1.00
5304;DHT22;2674;49.722;10.892;2023-06-10T10:28:45;25.80;1.00
5304;DHT22;2674;49.722;10.892;2023-06-10T10:31:15;25.50;1.00
5304;DHT22;2674;49.722;10.892;2023-06-10T10:34:10;25.40;1.00
5304;DHT22;2674;49.722;10.892;2023-06-10T10:36:38;25.40;1.00
5304;DHT22;2674;49.722;10.892;2023-06-10T10:39:04;25.40;1.00
5304;DHT22;2674;49.722;10.892;2023-06-10T10:41:31;25.50;1.00
5304;DHT22;2674;49.722;10.892;2023-06-10T10:43:58;25.90;1.00
5304;DHT22;2674;49.722;10.892;2023-06-10T10:46:25;26.40;1.00
5304;DHT22;2674;49.722;10.892;2023-06-10T10:48:56;26.70;1.00
5304;DHT22;2674;49.722;10.892;2023-06-10T10:51:23;26.60;1.00
5304;DHT22;2674;49.722;10.892;2023-06-10T10:54:29;26.60;1.00
5304;DHT22;2674;49.722;10.892;2023-06-10T10:57:23;26.70;1.00
5304;DHT22;2674;49.722;10.892;2023-06-10T10:59:55;27.10;1.00
5304;DHT22;2674;49.722;10.892;2023-06-10T11:05:04;27.10;1.00
5304;DHT22;2674;49.722;10.892;2023-06-10T11:07:32;26.90;1.00
5304;DHT22;2674;49.722;10.892;2023-06-10T11:10:06;26.70;1.00
5304;DHT22;2674;49.722;10.892;2023-06-10T11:12:41;26.50;1.00
5304;DHT22;2674;49.722;10.892;2023-06-10T11:15:08;26.40;1.00
5304;DHT22;2674;49.722;10.892;2023-06-10T11:17:34;26.60;1.00
5304;DHT22;2674;49.722;10.892;2023-06-10T11:19:59;27.00;1.00
5304;DHT22;2674;49.722;10.892;2023-06-10T11:22:25;27.30;1.00
5304;DHT22;2674;49.722;10.892;2023-06-10T11:24:51;27.60;1.00
5304;DHT22;2674;49.722;10.892;2023-06-10T11:27:21;27.80;1.00
5304;DHT22;2674;49.722;10.892;2023-06-10T11:32:35;28.00;1.00
5304;DHT22;2674;49.722;10.892;2023-06-10T11:35:04;28.40;1.00
5304;DHT22;2674;49.722;10.892;2023-06-10T11:37:30;28.50;1.00
5304;DHT22;2674;49.722;10.892;2023-06-10T11:39:56;28.80;1.00
5304;DHT22;2674;49.722;10.892;2023-06-10T11:42:23;28.80;1.00
5304;DHT22;2674;49.722;10.892;2023-06-10T11:44:53;28.70;1.00
5304;DHT22;2674;49.722;10.892;2023-06-10T11:47:19;28.30;1.00
5304;DHT22;2674;49.722;10.892;2023-06-10T11:49:51;28.00;1.00
5304;DHT22;2674;49.722;10.892;2023-06-10T11:52:27;27.80;1.00
5304;DHT22;2674;49.722;10.892;2023-06-10T11:54:54;27.60;1.00
5304;DHT22;2674;49.722;10.892;2023-06-10T11:57:20;27.40;1.00
5304;DHT22;2674;49.722;10.892;2023-06-10T11:59:46;27.00;1.00
5304;DHT22;2674;49.722;10.892;2023-06-10T12:02:16;26.90;1.00
5304;DHT22;2674;49.722;10.892;2023-06-10T12:04:42;26.70;1.00
5304;DHT22;2674;49.722;10.892;2023-06-10T12:07:08;26.50;1.00
5304;DHT22;2674;49.722;10.892;2023-06-10T12:09:34;26.40;1.00
5304;DHT22;2674;49.722;10.892;2023-06-10T12:12:01;26.30;1.00
5304;DHT22;2674;49.722;10.892;2023-06-10T12:14:50;26.20;1.00
5304;DHT22;2674;49.722;10.892;2023-06-10T12:19:55;26.60;1.00
5304;DHT22;2674;49.722;10.892;2023-06-10T12:22:22;26.90;1.00
5304;DHT22;2674;49.722;10.892;2023-06-10T12:25:00;27.20;1.00
5304;DHT22;2674;49.722;10.892;2023-06-10T12:27:27;27.20;1.00
5304;DHT22;2674;49.722;10.892;2023-06-10T12:29:56;27.20;1.00
5304;DHT22;2674;49.722;10.892;2023-06-10T12:32:43;27.30;1.00
5304;DHT22;2674;49.722;10.892;2023-06-10T12:35:11;27.70;1.00
5304;DHT22;2674;49.722;10.892;2023-06-10T12:37:39;28.00;1.00
5304;DHT22;2674;49.722;10.892;2023-06-10T12:40:05;28.50;1.00
5304;DHT22;2674;49.722;10.892;2023-06-10T12:42:36;28.80;1.00
5304;DHT22;2674;49.722;10.892;2023-06-10T12:45:03;28.90;1.00
5304;DHT22;2674;49.722;10.892;2023-06-10T12:47:31;28.80;1.00
5304;DHT22;2674;49.722;10.892;2023-06-10T12:49:59;28.90;1.00
5304;DHT22;2674;49.722;10.892;2023-06-10T12:52:25;28.80;1.00
5304;DHT22;2674;49.722;10.892;2023-06-10T12:54:52;28.70;1.00
5304;DHT22;2674;49.722;10.892;2023-06-10T12:57:18;28.50;1.00
5304;DHT22;2674;49.722;10.892;2023-06-10T12:59:43;28.30;1.00
5304;DHT22;2674;49.722;10.892;2023-06-10T13:02:16;28.10;1.00
5304;DHT22;2674;49.722;10.892;2023-06-10T13:04:45;27.90;1.00
5304;DHT22;2674;49.722;10.892;2023-06-10T13:07:12;27.60;1.00
5304;DHT22;2674;49.722;10.892;2023-06-10T13:09:37;27.30;1.00
5304;DHT22;2674;49.722;10.892;2023-06-10T13:12:04;27.30;1.00
5304;DHT22;2674;49.722;10.892;2023-06-10T13:14:31;27.40;1.00
5304;DHT22;2674;49.722;10.892;2023-06-10T13:16:56;27.50;1.00
5304;DHT22;2674;49.722;10.892;2023-06-10T13:19:22;27.30;1.00
5304;DHT22;2674;49.722;10.892;2023-06-10T13:21:48;27.20;1.00
5304;DHT22;2674;49.722;10.892;2023-06-10T13:24:14;27.40;1.00
5304;DHT22;2674;49.722;10.892;2023-06-10T13:26:40;27.70;1.00
5304;DHT22;2674;49.722;10.892;2023-06-10T13:29:06;28.00;1.00
5304;DHT22;2674;49.722;10.892;2023-06-10T13:31:33;28.40;1.00
5304;DHT22;2674;49.722;10.892;2023-06-10T13:33:59;28.70;1.00
5304;DHT22;2674;49.722;10.892;2023-06-10T13:36:25;28.90;1.00
5304;DHT22;2674;49.722;10.892;2023-06-10T13:38:51;29.10;1.00
5304;DHT22;2674;49.722;10.892;2023-06-10T13:41:17;29.10;1.00
5304;DHT22;2674;49.722;10.892;2023-06-10T13:43:43;29.40;1.00
5304;DHT22;2674;49.722;10.892;2023-06-10T13:46:09;29.50;1.00
5304;DHT22;2674;49.722;10.892;2023-06-10T13:48:35;29.60;1.00
5304;DHT22;2674;49.722;10.892;2023-06-10T13:51:00;29.80;1.00
5304;DHT22;2674;49.722;10.892;2023-06-10T13:53:26;29.70;1.00
5304;DHT22;2674;49.722;10.892;2023-06-10T13:55:52;30.00;1.00
5304;DHT22;2674;49.722;10.892;2023-06-10T13:58:18;30.00;1.00
5304;DHT22;2674;49.722;10.892;2023-06-10T14:00:44;30.00;1.00
5304;DHT22;2674;49.722;10.892;2023-06-10T14:03:09;29.90;1.00
5304;DHT22;2674;49.722;10.892;2023-06-10T14:05:35;29.80;1.00
5304;DHT22;2674;49.722;10.892;2023-06-10T14:08:01;29.80;1.00
5304;DHT22;2674;49.722;10.892;2023-06-10T14:10:27;29.70;1.00
5304;DHT22;2674;49.722;10.892;2023-06-10T14:12:53;29.50;1.00
5304;DHT22;2674;49.722;10.892;2023-06-10T14:15:19;29.10;1.00
5304;DHT22;2674;49.722;10.892;2023-06-10T14:17:45;28.70;1.00
5304;DHT22;2674;49.722;10.892;2023-06-10T14:20:11;28.50;1.00
5304;DHT22;2674;49.722;10.892;2023-06-10T14:22:37;28.30;1.00
5304;DHT22;2674;49.722;10.892;2023-06-10T14:25:03;28.10;1.00
5304;DHT22;2674;49.722;10.892;2023-06-10T14:27:29;28.00;1.00
5304;DHT22;2674;49.722;10.892;2023-06-10T14:29:55;27.80;1.00
5304;DHT22;2674;49.722;10.892;2023-06-10T14:32:21;27.80;1.00
5304;DHT22;2674;49.722;10.892;2023-06-10T14:34:47;27.80;1.00
5304;DHT22;2674;49.722;10.892;2023-06-10T14:37:13;27.60;1.00
5304;DHT22;2674;49.722;10.892;2023-06-10T14:39:39;27.30;1.00
5304;DHT22;2674;49.722;10.892;2023-06-10T14:42:05;27.10;1.00
5304;DHT22;2674;49.722;10.892;2023-06-10T14:44:31;26.90;1.00
5304;DHT22;2674;49.722;10.892;2023-06-10T14:46:57;26.70;1.00
5304;DHT22;2674;49.722;10.892;2023-06-10T14:49:23;26.50;1.00
5304;DHT22;2674;49.722;10.892;2023-06-10T14:51:49;26.20;1.00
5304;DHT22;2674;49.722;10.892;2023-06-10T14:54:15;26.00;1.00
5304;DHT22;2674;49.722;10.892;2023-06-10T14:56:41;25.80;1.00
5304;DHT22;2674;49.722;10.892;2023-06-10T14:59:07;25.50;1.00
5304;DHT22;2674;49.722;10.892;2023-06-10T15:01:33;25.30;1.00
5304;DHT22;2674;49.722;10.892;2023-06-10T15:03:59;25.10;1.00
5304;DHT22;2674;49.722;10.892;2023-06-10T15:06:25;25.10;1.00
5304;DHT22;2674;49.722;10.892;2023-06-10T15:08:51;25.30;1.00
5304;DHT22;2674;49.722;10.892;2023-06-10T15:11:17;25.60;1.00
5304;DHT22;2674;49.722;10.892;2023-06-10T15:13:43;25.50;1.00
5304;DHT22;2674;49.722;10.892;2023-06-10T15:16:09;25.50;1.00
5304;DHT22;2674;49.722;10.892;2023-06-10T15:18:35;25.40;1.00
5304;DHT22;2674;49.722;10.892;2023-06-10T15:21:01;25.30;1.00
5304;DHT22;2674;49.722;10.892;2023-06-10T15:23:27;25.30;1.00
5304;DHT22;2674;49.722;10.892;2023-06-10T15:25:53;25.50;1.00
5304;DHT22;2674;49.722;10.892;2023-06-10T15:28:19;25.60;1.00
5304;DHT22;2674;49.722;10.892;2023-06-10T15:30:45;25.70;1.00
5304;DHT22;2674;49.722;10.892;2023-06-10T15:33:11;26.20;1.00
5304;DHT22;2674;49.722;10.892;2023-06-10T15:35:36;26.50;1.00
5304;DHT22;2674;49.722;10.892;2023-06-10T15:38:02;26.20;1.00
5304;DHT22;2674;49.722;10.892;2023-06-10T15:40:28;26.20;1.00
5304;DHT22;2674;49.722;10.892;2023-06-10T15:42:54;25.90;1.00
5304;DHT22;2674;49.722;10.892;2023-06-10T15:45:20;25.90;1.00
5304;DHT22;2674;49.722;10.892;2023-06-10T15:47:46;25.80;1.00
5304;DHT22;2674;49.722;10.892;2023-06-10T15:50:12;26.00;1.00
5304;DHT22;2674;49.722;10.892;2023-06-10T15:52:37;26.20;1.00
5304;DHT22;2674;49.722;10.892;2023-06-10T15:55:03;26.30;1.00
5304;DHT22;2674;49.722;10.892;2023-06-10T15:57:29;26.40;1.00
5304;DHT22;2674;49.722;10.892;2023-06-10T15:59:55;26.40;1.00
5304;DHT22;2674;49.722;10.892;2023-06-10T16:02:21;26.50;1.00
5304;DHT22;2674;49.722;10.892;2023-06-10T16:04:47;26.60;1.00
5304;DHT22;2674;49.722;10.892;2023-06-10T16:07:13;26.90;1.00
5304;DHT22;2674;49.722;10.892;2023-06-10T16:09:39;26.80;1.00